KSBA/SBA METAR and TAF weather

Enter ICAO airport designator
Station Type Date Time Source
KSBA METAR 2022/10/01 07:53 UTC NOAA

KSBA 010753Z 19005KT 5SM BR OVC007 17/15 A2985 RMK AO2 SLP108 T01670150 402170161 $


Station Type Date Time Source
KSBA Decoded METAR 2022/10/01 07:53 UTC NOAA

SANTA BARBARA MUNICIPAL, CA, United States (KSBA) 34-26N 119-51W 3M
Oct 01, 2022 - 03:53 AM EDT / 2022.10.01 0753 UTC
Wind: from the S (190 degrees) at 6 MPH (5 KT):0
Visibility: 5 mile(s):0
Sky conditions: overcast
Weather: mist
Temperature: 62.1 F (16.7 C)
Dew Point: 59.0 F (15.0 C)
Relative Humidity: 89%
Pressure (altimeter): 29.85 in. Hg (1010 hPa)
ob: KSBA 010753Z 19005KT 5SM BR OVC007 17/15 A2985 RMK AO2 SLP108 T01670150 402170161
cycle: 8

Station Type Date Time Source
KSBA TAF 2022/10/01 06:22 UTC NOAA

TAF KSBA 010520Z 0106/0206 VRB03KT 6SM BR OVC007
FM011200 VRB03KT P6SM OVC010
FM011700 17006KT P6SM OVC015
FM012100 23008KT P6SM SCT015
FM020400 VRB03KT P6SM BKN007

Example: see airport list